Time;durP1;ratioP1;P1;durP2;ratioP2;P2;SDS_P1;SDS_P2;PMS_P1;PMS_P2;Temp;Humidity;BMP_temperature;BMP_pressure;BME280_temperature;BME280_humidity;BME280_pressure;Samples;Min_cycle;Max_cycle;Signal;HPM_P1;HPM_P2
2022/04/11 00:00:52;;;;;;;7.97;5.10;;;5.30;74.50;;;;;;4993980;28;20466;-46
2022/04/11 00:03:19;;;;;;;4.70;4.07;;;5.30;74.90;;;;;;4993459;28;20458;-46
2022/04/11 00:05:47;;;;;;;6.43;5.43;;;5.30;75.00;;;;;;4989402;28;20463;-46
2022/04/11 00:08:13;;;;;;;5.80;5.13;;;5.30;75.10;;;;;;4993402;28;20464;-46
2022/04/11 00:10:40;;;;;;;7.20;5.07;;;5.20;75.00;;;;;;4978984;28;20468;-46
2022/04/11 00:13:08;;;;;;;6.13;4.87;;;5.20;75.20;;;;;;4991129;28;20465;-46
2022/04/11 00:15:38;;;;;;;7.10;5.00;;;5.20;75.20;;;;;;4977105;28;20462;-46
2022/04/11 00:18:07;;;;;;;7.67;5.17;;;5.20;75.30;;;;;;4991329;28;20537;-46
2022/04/11 00:20:34;;;;;;;6.40;5.23;;;5.20;75.20;;;;;;4991767;28;20525;-46
2022/04/11 00:23:04;;;;;;;6.70;5.20;;;5.20;75.10;;;;;;4995759;28;20554;-46
2022/04/11 00:25:31;;;;;;;6.87;5.30;;;5.20;75.00;;;;;;4991741;28;20534;-47
2022/04/11 00:27:58;;;;;;;6.33;5.53;;;5.20;75.10;;;;;;4992502;28;20972;-47
2022/04/11 00:30:25;;;;;;;9.40;5.67;;;5.10;75.20;;;;;;4987468;28;20549;-47
2022/04/11 00:32:52;;;;;;;6.50;4.80;;;5.10;75.30;;;;;;4995514;28;20484;-46
2022/04/11 00:35:19;;;;;;;6.97;6.30;;;5.00;75.40;;;;;;4994219;28;20709;-46
2022/04/11 00:37:46;;;;;;;6.63;4.57;;;5.00;75.60;;;;;;4993024;28;20461;-46
2022/04/11 00:40:13;;;;;;;8.57;5.00;;;5.00;75.60;;;;;;4996004;28;20489;-46
2022/04/11 00:42:40;;;;;;;6.63;4.77;;;5.10;75.50;;;;;;4989412;28;20834;-46
2022/04/11 00:45:07;;;;;;;5.67;4.63;;;5.00;75.30;;;;;;4996288;28;21037;-46
2022/04/11 00:47:34;;;;;;;6.13;4.83;;;5.00;75.50;;;;;;4994158;28;20463;-46
2022/04/11 00:50:05;;;;;;;8.00;5.10;;;5.00;75.50;;;;;;4975611;28;20954;-46
2022/04/11 00:52:36;;;;;;;5.50;4.23;;;5.00;75.40;;;;;;4992604;28;20816;-46
2022/04/11 00:55:05;;;;;;;5.80;5.20;;;4.90;75.60;;;;;;4997354;28;20457;-46
2022/04/11 00:57:31;;;;;;;4.57;4.17;;;4.90;75.70;;;;;;4990491;28;20476;-46
2022/04/11 00:59:59;;;;;;;8.37;4.80;;;4.90;75.80;;;;;;4996343;28;20554;-46
2022/04/11 01:02:26;;;;;;;6.57;4.90;;;4.90;75.80;;;;;;4978961;28;20449;-46
2022/04/11 01:04:53;;;;;;;4.90;4.50;;;4.90;75.80;;;;;;4995824;28;20470;-46
2022/04/11 01:07:20;;;;;;;8.33;5.83;;;4.90;75.80;;;;;;4996579;28;20458;-46
2022/04/11 01:09:47;;;;;;;6.37;5.00;;;4.90;75.80;;;;;;4990317;28;20494;-46
2022/04/11 01:12:15;;;;;;;8.67;5.47;;;4.90;75.60;;;;;;4998635;28;20455;-46
2022/04/11 01:14:43;;;;;;;7.73;4.80;;;4.90;75.80;;;;;;4989761;28;20479;-46
2022/04/11 01:17:10;;;;;;;4.77;4.37;;;4.90;75.80;;;;;;4969142;28;20557;-46
2022/04/11 01:19:37;;;;;;;5.10;4.60;;;4.90;75.90;;;;;;4994054;28;20490;-47
2022/04/11 01:22:04;;;;;;;6.70;4.60;;;4.90;75.90;;;;;;4992017;28;20461;-46
2022/04/11 01:24:32;;;;;;;5.00;4.50;;;4.90;76.00;;;;;;4992435;28;20457;-46
2022/04/11 01:26:59;;;;;;;6.17;4.70;;;4.90;76.00;;;;;;4996558;28;20469;-46
2022/04/11 01:29:26;;;;;;;5.30;4.80;;;4.90;76.00;;;;;;4997945;28;20453;-46
2022/04/11 01:31:53;;;;;;;6.53;5.60;;;4.90;75.90;;;;;;4996599;28;20580;-46
2022/04/11 01:34:19;;;;;;;4.73;4.30;;;4.90;75.90;;;;;;4992405;28;20480;-46
2022/04/11 01:36:47;;;;;;;5.93;5.40;;;4.90;76.00;;;;;;4994240;28;20989;-47
2022/04/11 01:39:14;;;;;;;4.60;4.20;;;4.90;76.10;;;;;;4994586;28;20494;-46
2022/04/11 01:41:41;;;;;;;4.97;4.57;;;4.90;76.60;;;;;;4996889;28;20568;-46
2022/04/11 01:44:08;;;;;;;5.03;4.47;;;4.90;76.30;;;;;;4991510;28;20496;-46
2022/04/11 01:46:34;;;;;;;7.57;4.30;;;4.90;76.00;;;;;;4995211;28;20488;-46
2022/04/11 01:49:01;;;;;;;5.97;4.43;;;4.90;76.10;;;;;;4993559;28;20495;-46
2022/04/11 01:51:28;;;;;;;5.10;4.53;;;4.90;76.00;;;;;;4989373;28;20888;-46
2022/04/11 01:53:55;;;;;;;5.07;4.60;;;4.90;75.90;;;;;;4995316;28;20469;-46
2022/04/11 01:56:22;;;;;;;6.03;4.83;;;4.90;75.80;;;;;;4992048;28;20901;-46
2022/04/11 01:58:48;;;;;;;8.40;5.63;;;4.90;75.90;;;;;;4995006;28;20494;-46
2022/04/11 02:01:18;;;;;;;5.23;4.53;;;4.90;75.90;;;;;;4994099;28;20458;-46
2022/04/11 02:03:45;;;;;;;5.13;4.63;;;4.90;75.70;;;;;;4979228;28;20478;-45
2022/04/11 02:06:12;;;;;;;5.53;5.03;;;4.90;75.60;;;;;;4990531;28;20462;-46
2022/04/11 02:08:39;;;;;;;5.07;4.60;;;4.90;75.40;;;;;;4989908;28;20481;-46
2022/04/11 02:11:06;;;;;;;5.23;4.63;;;4.90;75.50;;;;;;4992289;28;20472;-46
2022/04/11 02:13:32;;;;;;;6.17;5.10;;;4.80;75.70;;;;;;4983424;28;20475;-46
2022/04/11 02:16:00;;;;;;;5.73;5.20;;;4.90;75.80;;;;;;4990893;28;20466;-46
2022/04/11 02:18:27;;;;;;;5.40;4.50;;;4.90;76.00;;;;;;4985458;28;20498;-46
2022/04/11 02:20:54;;;;;;;10.80;5.20;;;4.90;76.00;;;;;;4991649;28;20469;-47
2022/04/11 02:23:21;;;;;;;5.40;4.87;;;4.90;75.90;;;;;;4995254;28;20493;-46
2022/04/11 02:25:48;;;;;;;5.20;4.70;;;4.90;76.10;;;;;;4991295;28;20529;-46
2022/04/11 02:28:14;;;;;;;5.50;4.70;;;4.90;76.20;;;;;;4977172;28;20864;-46
2022/04/11 02:30:41;;;;;;;5.47;5.00;;;4.90;76.20;;;;;;4988763;28;20494;-45
2022/04/11 02:33:09;;;;;;;5.13;4.70;;;4.90;76.20;;;;;;4996117;28;20954;-46
2022/04/11 02:35:35;;;;;;;5.93;5.20;;;4.90;76.10;;;;;;4979929;28;20832;-46
2022/04/11 02:38:02;;;;;;;5.27;4.20;;;4.90;76.10;;;;;;5000082;28;20850;-46
2022/04/11 02:40:29;;;;;;;8.70;5.20;;;4.90;76.00;;;;;;4998308;28;20497;-46
2022/04/11 02:42:57;;;;;;;6.10;4.83;;;4.90;76.00;;;;;;4998982;28;20581;-47
2022/04/11 02:45:24;;;;;;;10.77;5.30;;;4.90;76.20;;;;;;4999431;28;20642;-46
2022/04/11 02:47:51;;;;;;;5.23;4.77;;;5.00;76.00;;;;;;4999631;28;20468;-46
2022/04/11 02:50:18;;;;;;;4.97;4.50;;;5.00;75.80;;;;;;4999421;28;20465;-46
2022/04/11 02:52:45;;;;;;;6.60;5.73;;;5.00;75.80;;;;;;4997994;28;20533;-46
2022/04/11 02:55:12;;;;;;;7.57;5.57;;;5.00;76.00;;;;;;5001124;28;20457;-46
2022/04/11 02:57:38;;;;;;;5.87;5.20;;;5.00;75.90;;;;;;5001278;28;21042;-46
2022/04/11 03:00:11;;;;;;;6.20;5.63;;;4.90;76.00;;;;;;4988365;28;20877;-42
2022/04/11 03:02:39;;;;;;;7.93;5.60;;;4.90;76.00;;;;;;4986639;28;20497;-41
2022/04/11 03:05:06;;;;;;;6.63;6.03;;;4.90;76.30;;;;;;4986234;28;20540;-41
2022/04/11 03:07:33;;;;;;;10.67;5.83;;;4.90;76.50;;;;;;4984157;28;21081;-41
2022/04/11 03:10:00;;;;;;;6.60;5.30;;;4.90;76.60;;;;;;4987869;28;20965;-41
2022/04/11 03:12:27;;;;;;;6.23;5.63;;;4.90;76.50;;;;;;4983045;28;20505;-41
2022/04/11 03:14:54;;;;;;;6.73;6.03;;;5.00;76.70;;;;;;4988010;28;20469;-42
2022/04/11 03:17:20;;;;;;;5.73;5.10;;;4.90;76.60;;;;;;4986811;28;20813;-41
2022/04/11 03:19:47;;;;;;;8.50;5.40;;;5.00;76.60;;;;;;4984712;28;20495;-41
2022/04/11 03:22:14;;;;;;;6.43;5.80;;;4.90;76.70;;;;;;4987668;28;20469;-41
2022/04/11 03:24:41;;;;;;;6.93;5.80;;;4.90;76.80;;;;;;4985190;28;20466;-41
2022/04/11 03:27:07;;;;;;;10.40;5.57;;;4.90;76.80;;;;;;4985373;28;20473;-41
2022/04/11 03:29:34;;;;;;;6.30;5.33;;;4.90;76.90;;;;;;4984549;28;20943;-42
2022/04/11 03:32:01;;;;;;;6.97;5.47;;;4.90;76.90;;;;;;4982597;28;20484;-41
2022/04/11 03:34:28;;;;;;;5.77;5.27;;;4.90;77.00;;;;;;4986524;28;20462;-41
2022/04/11 03:36:55;;;;;;;7.00;5.50;;;4.90;77.10;;;;;;4986902;28;20464;-41
2022/04/11 03:39:21;;;;;;;8.53;5.90;;;4.90;77.20;;;;;;4986456;28;21018;-41
2022/04/11 03:41:48;;;;;;;6.03;5.50;;;4.90;77.30;;;;;;4987746;28;21005;-42
2022/04/11 03:44:15;;;;;;;8.27;5.57;;;4.90;77.40;;;;;;4971159;28;20963;-42
2022/04/11 03:46:41;;;;;;;6.50;5.93;;;4.90;77.40;;;;;;4982768;28;20472;-42
2022/04/11 03:49:08;;;;;;;6.63;5.83;;;4.90;77.50;;;;;;4980747;28;20462;-42
2022/04/11 03:51:35;;;;;;;6.03;5.53;;;4.90;77.70;;;;;;4966332;28;20819;-42
2022/04/11 03:54:02;;;;;;;8.10;5.80;;;4.90;77.60;;;;;;4982367;28;20465;-42
2022/04/11 03:56:28;;;;;;;6.20;5.47;;;4.90;77.60;;;;;;4981923;28;20457;-42
2022/04/11 03:58:55;;;;;;;5.70;5.13;;;4.90;77.50;;;;;;4982376;28;20557;-42
2022/04/11 04:01:22;;;;;;;5.97;5.37;;;5.00;77.40;;;;;;4980690;28;20729;-42
2022/04/11 04:03:49;;;;;;;5.77;5.27;;;4.90;77.50;;;;;;4964448;28;20467;-42
2022/04/11 04:06:16;;;;;;;8.90;5.97;;;4.90;77.40;;;;;;4980574;28;20464;-42
2022/04/11 04:08:43;;;;;;;7.33;6.63;;;4.90;77.40;;;;;;4983310;28;20462;-42
2022/04/11 04:11:10;;;;;;;7.50;6.07;;;4.80;77.50;;;;;;4980583;28;20482;-42
2022/04/11 04:13:37;;;;;;;8.00;6.13;;;4.90;77.50;;;;;;4980223;28;20966;-42
2022/04/11 04:16:04;;;;;;;8.83;5.67;;;4.80;77.50;;;;;;4982858;28;20491;-42
2022/04/11 04:18:31;;;;;;;6.90;6.20;;;4.80;77.50;;;;;;4983357;28;20545;-42
2022/04/11 04:20:59;;;;;;;7.00;6.00;;;4.80;77.60;;;;;;4982722;28;20493;-41
2022/04/11 04:23:26;;;;;;;7.07;4.93;;;4.80;77.50;;;;;;4985986;28;20958;-42
2022/04/11 04:25:53;;;;;;;10.70;6.67;;;4.70;77.50;;;;;;4986190;28;20489;-41
2022/04/11 04:28:20;;;;;;;6.43;5.83;;;4.70;77.70;;;;;;4986079;28;20925;-42
2022/04/11 04:30:49;;;;;;;7.77;6.17;;;4.70;77.80;;;;;;4981781;28;21006;-42
2022/04/11 04:33:16;;;;;;;7.53;6.60;;;4.60;77.80;;;;;;4980209;28;20461;-42
2022/04/11 04:35:43;;;;;;;7.37;6.10;;;4.60;77.90;;;;;;4983503;28;21015;-42
2022/04/11 04:38:09;;;;;;;9.23;6.37;;;4.60;78.10;;;;;;4966471;28;20500;-41
2022/04/11 04:40:36;;;;;;;7.30;6.60;;;4.50;78.00;;;;;;4982037;28;20492;-42
2022/04/11 04:43:04;;;;;;;9.20;6.23;;;4.50;78.10;;;;;;4983844;28;20462;-42
2022/04/11 04:45:31;;;;;;;5.97;5.33;;;4.50;78.20;;;;;;4983585;28;20458;-42
2022/04/11 04:47:58;;;;;;;8.20;7.30;;;4.50;78.20;;;;;;4979461;28;20460;-41
2022/04/11 04:50:25;;;;;;;8.97;6.73;;;4.40;78.30;;;;;;4978333;28;20472;-41
2022/04/11 04:52:51;;;;;;;8.83;7.70;;;4.40;78.40;;;;;;4982310;28;20488;-42
2022/04/11 04:55:18;;;;;;;7.90;6.63;;;4.40;78.60;;;;;;4980646;28;20469;-42
2022/04/11 04:57:45;;;;;;;7.40;6.77;;;4.30;78.70;;;;;;4981544;28;20486;-42
2022/04/11 05:00:12;;;;;;;17.63;6.83;;;4.30;78.90;;;;;;4980201;28;20497;-42
2022/04/11 05:02:39;;;;;;;7.30;6.53;;;4.30;79.00;;;;;;4979511;28;20458;-42
2022/04/11 05:05:08;;;;;;;6.30;5.70;;;4.40;79.00;;;;;;4968130;28;20474;-42
2022/04/11 05:07:35;;;;;;;6.73;5.93;;;4.40;78.90;;;;;;4981509;28;20470;-41
2022/04/11 05:10:08;;;;;;;8.93;5.87;;;4.40;78.60;;;;;;4967000;28;20472;-41
2022/04/11 05:12:43;;;;;;;11.40;6.37;;;4.40;78.60;;;;;;4977978;28;20490;-41
2022/04/11 05:15:11;;;;;;;11.13;6.63;;;4.30;78.70;;;;;;4980978;28;20488;-42
2022/04/11 05:17:38;;;;;;;7.97;5.80;;;4.30;78.90;;;;;;4962247;28;20638;-42
2022/04/11 05:20:11;;;;;;;8.33;6.60;;;4.30;79.20;;;;;;4965592;28;20490;-42
2022/04/11 05:22:38;;;;;;;8.80;6.60;;;4.30;79.10;;;;;;4981514;28;20453;-42
2022/04/11 05:25:06;;;;;;;8.60;6.83;;;4.20;79.20;;;;;;4964102;28;20476;-42
2022/04/11 05:27:33;;;;;;;7.73;6.10;;;4.30;79.40;;;;;;4982284;28;20965;-42
2022/04/11 05:30:00;;;;;;;12.63;7.23;;;4.20;79.40;;;;;;4965965;28;20485;-42
2022/04/11 05:32:27;;;;;;;8.37;6.93;;;4.20;79.40;;;;;;4979072;28;20748;-42
2022/04/11 05:34:53;;;;;;;6.17;5.67;;;4.30;79.60;;;;;;4963522;28;20488;-43
2022/04/11 05:37:20;;;;;;;8.03;6.97;;;4.20;79.60;;;;;;4980828;28;20466;-42
2022/04/11 05:39:47;;;;;;;9.80;7.20;;;4.20;79.70;;;;;;4982133;28;20498;-41
2022/04/11 05:42:13;;;;;;;9.50;7.30;;;4.20;79.80;;;;;;4960990;28;20442;-42
2022/04/11 05:44:40;;;;;;;15.40;10.67;;;4.20;79.90;;;;;;4979956;28;20548;-42
2022/04/11 05:47:09;;;;;;;24.10;16.90;;;4.30;80.00;;;;;;4982027;28;20488;-42
2022/04/11 05:49:38;;;;;;;37.60;20.87;;;4.30;80.10;;;;;;4980299;28;20463;-42
2022/04/11 05:52:07;;;;;;;29.90;21.10;;;4.30;80.20;;;;;;4979865;28;20458;-42
2022/04/11 05:54:40;;;;;;;27.23;16.00;;;4.30;80.30;;;;;;4980595;28;20454;-42
2022/04/11 05:57:07;;;;;;;17.43;10.80;;;4.40;80.60;;;;;;4980945;28;20935;-42
2022/04/11 05:59:33;;;;;;;14.93;11.77;;;4.50;80.80;;;;;;4982265;28;20458;-42
2022/04/11 06:02:00;;;;;;;14.87;10.90;;;4.60;80.80;;;;;;4980629;28;20471;-41
2022/04/11 06:04:27;;;;;;;10.53;9.43;;;4.70;80.90;;;;;;4980249;28;20463;-41
2022/04/11 06:06:54;;;;;;;12.63;9.70;;;4.70;80.60;;;;;;4962561;28;20469;-41
2022/04/11 06:09:20;;;;;;;12.80;9.03;;;4.80;80.60;;;;;;4982577;28;20976;-41
2022/04/11 06:11:47;;;;;;;15.07;9.50;;;4.80;80.70;;;;;;4978242;28;20541;-41
2022/04/11 06:14:14;;;;;;;13.63;8.83;;;4.90;80.60;;;;;;4977878;28;20490;-41
2022/04/11 06:16:41;;;;;;;12.37;9.30;;;5.00;80.50;;;;;;4979404;28;20468;-42
2022/04/11 06:19:07;;;;;;;9.03;8.13;;;5.00;80.40;;;;;;4979259;28;20455;-42
2022/04/11 06:21:34;;;;;;;9.70;8.70;;;5.10;80.30;;;;;;4980534;28;20490;-41
2022/04/11 06:24:01;;;;;;;10.83;8.40;;;5.20;80.00;;;;;;4984794;28;20473;-42
2022/04/11 06:26:27;;;;;;;8.00;7.20;;;5.30;79.60;;;;;;4980259;28;20461;-42
2022/04/11 06:28:54;;;;;;;9.10;7.57;;;5.40;79.50;;;;;;4978887;28;20552;-42
2022/04/11 06:31:21;;;;;;;9.37;8.47;;;5.40;79.40;;;;;;4978758;28;20485;-43
2022/04/11 06:33:48;;;;;;;8.83;7.93;;;5.50;79.40;;;;;;4978423;28;20491;-43
2022/04/11 06:36:17;;;;;;;11.33;8.70;;;5.50;79.50;;;;;;4979139;28;20948;-42
2022/04/11 06:38:44;;;;;;;9.80;7.70;;;5.60;79.20;;;;;;4978452;28;20465;-42
2022/04/11 06:41:11;;;;;;;13.50;8.67;;;5.60;78.50;;;;;;4961700;28;20494;-41
2022/04/11 06:43:37;;;;;;;11.53;8.03;;;5.60;78.00;;;;;;4980833;28;20546;-41
2022/04/11 06:46:04;;;;;;;11.20;9.23;;;5.70;77.90;;;;;;4982130;28;20465;-41
2022/04/11 06:48:31;;;;;;;10.17;8.60;;;5.70;77.40;;;;;;4978190;28;21028;-42
2022/04/11 06:50:58;;;;;;;12.70;8.43;;;5.80;77.40;;;;;;4981433;28;20955;-42
2022/04/11 06:53:24;;;;;;;11.30;8.30;;;5.90;77.10;;;;;;4979344;28;20544;-41
2022/04/11 06:55:51;;;;;;;11.47;9.80;;;6.00;77.00;;;;;;4980872;28;20494;-41
2022/04/11 06:58:25;;;;;;;13.00;7.93;;;6.00;76.90;;;;;;4978892;28;20522;-41
2022/04/11 07:00:51;;;;;;;13.03;9.03;;;6.10;76.70;;;;;;4980021;28;20492;-41
2022/04/11 07:03:18;;;;;;;9.83;8.83;;;6.20;76.40;;;;;;4974603;28;20978;-42
2022/04/11 07:05:45;;;;;;;15.20;8.43;;;6.30;76.20;;;;;;4978556;28;20623;-42
2022/04/11 07:08:12;;;;;;;8.37;7.47;;;6.40;76.10;;;;;;4964524;28;20466;-41
2022/04/11 07:10:40;;;;;;;11.47;8.07;;;6.50;75.60;;;;;;4977308;28;21084;-41
2022/04/11 07:13:07;;;;;;;8.83;7.87;;;6.60;75.20;;;;;;4978248;28;20462;-41
2022/04/11 07:15:34;;;;;;;12.90;7.60;;;6.70;75.00;;;;;;4982050;28;20897;-41
2022/04/11 07:18:01;;;;;;;8.10;7.30;;;6.90;74.90;;;;;;4978079;28;20461;-41
2022/04/11 07:20:28;;;;;;;10.90;8.23;;;7.00;73.50;;;;;;4963852;28;20481;-41
2022/04/11 07:22:55;;;;;;;8.63;7.00;;;7.10;73.30;;;;;;4984631;28;20470;-41
2022/04/11 07:25:24;;;;;;;8.70;7.00;;;7.20;72.80;;;;;;4982514;28;20464;-41
2022/04/11 07:27:51;;;;;;;8.57;7.07;;;7.30;72.70;;;;;;4982883;28;20471;-41
2022/04/11 07:30:18;;;;;;;9.40;6.90;;;7.40;72.70;;;;;;4984998;28;20458;-41
2022/04/11 07:32:44;;;;;;;8.67;6.80;;;7.60;72.20;;;;;;4966895;28;20913;-41
2022/04/11 07:35:11;;;;;;;7.70;6.93;;;7.70;71.20;;;;;;4981180;28;20466;-41
2022/04/11 07:37:38;;;;;;;8.40;6.87;;;7.80;71.30;;;;;;4984513;28;20890;-41
2022/04/11 07:40:05;;;;;;;8.90;7.07;;;8.00;71.20;;;;;;4984010;28;20475;-41
2022/04/11 07:42:32;;;;;;;9.03;7.30;;;8.20;71.10;;;;;;4984847;28;20456;-41
2022/04/11 07:44:59;;;;;;;7.83;6.57;;;8.50;69.90;;;;;;4983572;28;20461;-41
2022/04/11 07:47:26;;;;;;;9.23;7.10;;;8.60;68.70;;;;;;4985464;28;20512;-41
2022/04/11 07:49:52;;;;;;;7.90;7.00;;;8.80;67.90;;;;;;4986077;28;20545;-41
2022/04/11 07:52:21;;;;;;;8.30;7.00;;;8.90;67.30;;;;;;4982387;28;20461;-40
2022/04/11 07:54:48;;;;;;;10.07;6.80;;;9.10;67.60;;;;;;4972468;28;20476;-42
2022/04/11 07:57:14;;;;;;;9.27;6.50;;;9.30;66.20;;;;;;4984006;28;20447;-41
2022/04/11 08:00:02;;;;;;;9.37;6.30;;;9.50;65.90;;;;;;4985149;28;20477;-41
2022/04/11 08:02:29;;;;;;;7.60;6.80;;;9.80;65.20;;;;;;4972368;28;20457;-41
2022/04/11 08:04:59;;;;;;;6.67;6.07;;;9.90;64.30;;;;;;4982208;28;20463;-41
2022/04/11 08:07:26;;;;;;;6.90;6.20;;;10.20;63.30;;;;;;4985408;28;20451;-41
2022/04/11 08:09:53;;;;;;;7.60;6.03;;;10.30;62.20;;;;;;4981086;28;20481;-41
2022/04/11 08:12:20;;;;;;;8.80;6.10;;;10.50;61.20;;;;;;4982263;28;20458;-41
2022/04/11 08:14:46;;;;;;;7.10;5.90;;;10.70;61.50;;;;;;4977632;28;20835;-41
2022/04/11 08:17:13;;;;;;;6.60;5.73;;;10.90;61.00;;;;;;4984356;28;20525;-41
2022/04/11 08:19:40;;;;;;;9.53;6.80;;;11.10;60.50;;;;;;4982678;28;20460;-41
2022/04/11 08:22:07;;;;;;;6.97;6.27;;;11.40;60.30;;;;;;4982371;28;20499;-41
2022/04/11 08:24:33;;;;;;;8.20;5.80;;;11.60;59.90;;;;;;4981253;28;20544;-41
2022/04/11 08:27:00;;;;;;;6.13;5.63;;;11.80;58.50;;;;;;4985655;28;20459;-41
2022/04/11 08:29:27;;;;;;;12.57;7.17;;;12.00;57.90;;;;;;4965436;28;20463;-41
2022/04/11 08:31:54;;;;;;;8.60;5.97;;;12.30;58.10;;;;;;4981745;28;20501;-41
2022/04/11 08:34:21;;;;;;;7.20;6.60;;;12.50;57.30;;;;;;4984220;28;20485;-41
2022/04/11 08:36:48;;;;;;;7.30;6.20;;;12.60;55.60;;;;;;4983273;28;20494;-41
2022/04/11 08:39:16;;;;;;;6.50;4.80;;;12.70;55.30;;;;;;4982894;28;21750;-41
2022/04/11 08:41:43;;;;;;;8.20;6.20;;;12.90;53.00;;;;;;4981493;28;20491;-41
2022/04/11 08:44:13;;;;;;;7.37;6.67;;;13.00;52.80;;;;;;4981538;28;20466;-41
2022/04/11 08:46:41;;;;;;;5.90;4.80;;;13.30;52.80;;;;;;4983021;28;20477;-41
2022/04/11 08:49:07;;;;;;;5.20;4.40;;;13.50;52.30;;;;;;4984006;28;20459;-41
2022/04/11 08:51:35;;;;;;;5.47;4.90;;;13.80;51.40;;;;;;4982012;28;20465;-41
2022/04/11 08:54:05;;;;;;;7.00;5.50;;;14.00;50.30;;;;;;4985770;28;20461;-41
2022/04/11 08:56:33;;;;;;;6.03;4.60;;;14.20;50.10;;;;;;4982997;28;20475;-41
2022/04/11 08:59:00;;;;;;;4.10;3.80;;;14.50;49.70;;;;;;4971896;28;20471;-41
2022/04/11 09:01:26;;;;;;;3.50;3.20;;;14.60;47.30;;;;;;4981608;28;20491;-41
2022/04/11 09:03:53;;;;;;;6.70;3.70;;;14.80;47.40;;;;;;4981570;28;20499;-41
2022/04/11 09:06:22;;;;;;;5.43;3.30;;;15.10;47.20;;;;;;4983164;28;20457;-41
2022/04/11 09:08:50;;;;;;;4.47;4.10;;;15.30;46.20;;;;;;4983234;28;20958;-41
2022/04/11 09:11:31;;;;;;;2.50;2.23;;;15.50;45.50;;;;;;4975741;28;20483;-41
2022/04/11 09:14:02;;;;;;;3.37;3.10;;;15.70;45.10;;;;;;4983812;28;20822;-41
2022/04/11 09:16:50;;;;;;;5.20;2.87;;;16.00;44.80;;;;;;4985121;28;20451;-41
2022/04/11 09:19:21;;;;;;;5.80;3.30;;;16.40;44.70;;;;;;4984983;28;20471;-41
2022/04/11 09:22:08;;;;;;;3.57;2.90;;;16.60;43.30;;;;;;4981105;28;20476;-41
2022/04/11 09:24:35;;;;;;;4.57;3.00;;;16.80;43.10;;;;;;4984343;28;20468;-41
2022/04/11 09:27:05;;;;;;;3.27;3.00;;;17.10;42.70;;;;;;4982097;28;20444;-42
2022/04/11 09:29:35;;;;;;;2.90;2.60;;;17.30;41.70;;;;;;4969849;28;20459;-42
2022/04/11 09:32:06;;;;;;;3.60;2.33;;;17.40;40.70;;;;;;4968268;28;20488;-42
2022/04/11 09:34:33;;;;;;;3.00;2.47;;;17.50;40.10;;;;;;4983517;28;20469;-42
2022/04/11 09:37:01;;;;;;;3.03;2.40;;;17.80;40.50;;;;;;4983532;28;20477;-42
2022/04/11 09:39:33;;;;;;;3.90;2.77;;;17.80;39.90;;;;;;4964040;28;20470;-42
2022/04/11 09:42:04;;;;;;;7.00;3.37;;;17.80;39.90;;;;;;4976684;28;20532;-42
2022/04/11 09:44:35;;;;;;;2.87;2.50;;;18.00;39.40;;;;;;4975801;28;20827;-42
2022/04/11 09:47:20;;;;;;;4.40;3.00;;;18.10;39.70;;;;;;4981533;28;20887;-42
2022/04/11 09:49:47;;;;;;;4.70;2.77;;;18.20;39.40;;;;;;4964281;28;20470;-42
2022/04/11 09:52:15;;;;;;;5.33;3.30;;;18.10;38.10;;;;;;4981830;28;20473;-42
2022/04/11 09:54:50;;;;;;;2.70;2.37;;;18.20;39.30;;;;;;4979718;28;20507;-42
2022/04/11 09:57:18;;;;;;;3.47;2.77;;;18.20;38.80;;;;;;4978231;28;20974;-42
2022/04/11 09:59:45;;;;;;;3.40;2.47;;;18.40;39.40;;;;;;4962019;28;20467;-42
2022/04/11 10:02:34;;;;;;;2.40;2.20;;;18.50;38.20;;;;;;4977739;28;20881;-42
2022/04/11 10:05:02;;;;;;;4.50;2.80;;;18.50;38.20;;;;;;4979354;28;20948;-42
2022/04/11 10:07:29;;;;;;;3.20;2.40;;;18.60;38.40;;;;;;4964277;28;20467;-43
2022/04/11 10:09:57;;;;;;;3.07;2.40;;;18.60;37.30;;;;;;4968597;28;20469;-42
2022/04/11 10:12:24;;;;;;;4.00;2.80;;;18.80;38.20;;;;;;4979943;28;20476;-42
2022/04/11 10:14:52;;;;;;;3.43;2.90;;;19.00;37.30;;;;;;4980556;28;20532;-42
2022/04/11 10:17:19;;;;;;;4.00;2.83;;;19.00;37.40;;;;;;4979690;28;20451;-42
2022/04/11 10:19:48;;;;;;;5.70;3.43;;;19.30;37.00;;;;;;4982286;28;20999;-42
2022/04/11 10:22:26;;;;;;;2.70;2.50;;;19.40;36.00;;;;;;4977780;28;20526;-43
2022/04/11 10:25:06;;;;;;;4.90;2.80;;;19.50;37.40;;;;;;4961197;28;20462;-42
2022/04/11 10:27:37;;;;;;;2.40;2.20;;;19.60;36.80;;;;;;4977724;28;20468;-42
2022/04/11 10:30:28;;;;;;;3.30;2.23;;;19.70;35.90;;;;;;4979000;28;20457;-43
2022/04/11 10:32:55;;;;;;;3.60;3.10;;;19.70;36.00;;;;;;4981022;28;20559;-43
2022/04/11 10:35:38;;;;;;;3.30;2.30;;;19.80;36.10;;;;;;4978822;28;20581;-43
2022/04/11 10:38:07;;;;;;;3.03;2.57;;;19.90;36.10;;;;;;4982936;28;20473;-43
2022/04/11 10:40:36;;;;;;;4.30;2.70;;;20.10;35.40;;;;;;4977895;28;20589;-43
2022/04/11 10:43:08;;;;;;;2.97;2.77;;;20.20;34.60;;;;;;4978317;28;20466;-43
2022/04/11 10:45:44;;;;;;;3.70;2.53;;;20.20;35.20;;;;;;4983677;28;20473;-43
2022/04/11 10:48:18;;;;;;;6.20;2.27;;;20.30;35.30;;;;;;4980297;28;20469;-43
2022/04/11 10:50:45;;;;;;;3.47;2.23;;;20.50;35.40;;;;;;4959372;28;20473;-43
2022/04/11 10:53:24;;;;;;;3.20;2.50;;;20.60;35.40;;;;;;4976367;28;20475;-43
2022/04/11 10:56:02;;;;;;;4.57;2.60;;;20.70;36.00;;;;;;4963288;28;20487;-43
2022/04/11 10:58:50;;;;;;;2.73;2.50;;;20.80;35.10;;;;;;4988205;28;20526;-43
2022/04/11 11:01:56;;;;;;;5.17;3.57;;;20.90;34.40;;;;;;4982131;28;20503;-44
2022/04/11 11:04:27;;;;;;;3.70;2.40;;;20.80;35.20;;;;;;4961294;28;20539;-43
2022/04/11 11:07:23;;;;;;;3.70;2.90;;;20.60;35.40;;;;;;4985346;28;21062;-43
2022/04/11 11:09:57;;;;;;;4.67;3.40;;;20.50;36.30;;;;;;4981633;28;21500;-43
2022/04/11 11:12:27;;;;;;;4.50;2.80;;;20.50;34.40;;;;;;4984816;28;20492;-43
2022/04/11 11:14:54;;;;;;;2.87;2.40;;;20.40;35.10;;;;;;4983003;28;20560;-43
2022/04/11 11:17:20;;;;;;;5.57;3.00;;;20.40;35.30;;;;;;4983592;28;20505;-43
2022/04/11 11:20:16;;;;;;;3.27;2.97;;;20.30;35.20;;;;;;4984838;28;21102;-43
2022/04/11 11:23:18;;;;;;;3.50;2.30;;;19.80;36.40;;;;;;4971074;28;20511;-43
2022/04/11 11:25:45;;;;;;;3.27;2.90;;;19.80;36.50;;;;;;4982692;28;20512;-43
2022/04/11 11:28:13;;;;;;;5.07;3.20;;;19.70;37.00;;;;;;4984669;28;20470;-43
2022/04/11 11:30:41;;;;;;;4.13;3.10;;;19.70;36.50;;;;;;4979962;28;21010;-43
2022/04/11 11:33:11;;;;;;;3.70;3.13;;;19.60;36.50;;;;;;4967855;28;20466;-43
2022/04/11 11:35:53;;;;;;;3.20;2.90;;;19.70;36.00;;;;;;4982962;28;20472;-43
2022/04/11 11:38:28;;;;;;;4.80;2.63;;;19.80;36.80;;;;;;4984857;28;20465;-43
2022/04/11 11:40:57;;;;;;;3.10;2.60;;;19.80;36.80;;;;;;4984075;28;20467;-43
2022/04/11 11:43:28;;;;;;;4.00;3.10;;;19.90;36.80;;;;;;4982575;28;20547;-43
2022/04/11 11:46:03;;;;;;;2.60;2.30;;;19.70;37.00;;;;;;4982650;28;20480;-43
2022/04/11 11:48:33;;;;;;;3.40;3.10;;;19.60;36.80;;;;;;4980206;28;20550;-43
2022/04/11 11:51:02;;;;;;;3.43;2.97;;;19.50;36.50;;;;;;4964873;28;20472;-43
2022/04/11 11:53:41;;;;;;;3.80;2.80;;;19.50;36.40;;;;;;4984524;28;20474;-43
2022/04/11 11:56:08;;;;;;;3.30;2.50;;;19.30;37.10;;;;;;4982149;28;20506;-43
2022/04/11 11:58:39;;;;;;;3.57;2.40;;;19.20;36.90;;;;;;4980909;28;21487;-43
2022/04/11 12:01:10;;;;;;;4.90;2.60;;;19.20;37.00;;;;;;4981193;28;20469;-43
2022/04/11 12:06:28;;;;;;;2.60;2.30;;;19.20;36.90;;;;;;4983350;28;20847;-43
2022/04/11 12:09:01;;;;;;;3.47;2.73;;;19.20;37.20;;;;;;4980063;28;20995;-43
2022/04/11 12:11:29;;;;;;;3.27;2.40;;;19.20;36.80;;;;;;4979933;28;20488;-43
2022/04/11 12:14:16;;;;;;;2.50;2.30;;;19.10;36.90;;;;;;4981050;28;20539;-42
2022/04/11 12:17:02;;;;;;;4.27;3.20;;;19.00;37.50;;;;;;4983047;28;20844;-42
2022/04/11 12:19:34;;;;;;;4.60;2.97;;;18.90;37.70;;;;;;4983433;28;20504;-42
2022/04/11 12:22:12;;;;;;;3.17;2.40;;;18.80;37.00;;;;;;4982760;28;20491;-43
2022/04/11 12:24:40;;;;;;;4.77;3.13;;;18.80;37.60;;;;;;4983101;28;20470;-43
2022/04/11 12:27:13;;;;;;;3.23;2.30;;;18.80;37.70;;;;;;4983759;28;20464;-43
2022/04/11 12:29:41;;;;;;;4.27;2.47;;;18.80;38.00;;;;;;4967963;28;20475;-43
2022/04/11 12:32:13;;;;;;;5.33;3.07;;;18.80;37.70;;;;;;4982232;28;21194;-43
2022/04/11 12:34:44;;;;;;;2.93;2.50;;;18.70;37.30;;;;;;4984120;28;20562;-43
2022/04/11 12:37:13;;;;;;;2.47;2.20;;;18.80;37.40;;;;;;4984353;28;20459;-43
2022/04/11 12:39:53;;;;;;;2.47;2.20;;;18.80;37.70;;;;;;4985679;28;20485;-43
2022/04/11 12:42:21;;;;;;;5.20;3.83;;;18.90;37.60;;;;;;4983087;28;20497;-43
2022/04/11 12:44:48;;;;;;;3.37;2.30;;;18.90;37.30;;;;;;4984085;28;21149;-43
2022/04/11 12:47:20;;;;;;;3.67;2.50;;;18.70;37.00;;;;;;4985592;28;20543;-43
2022/04/11 12:49:54;;;;;;;1.90;1.70;;;18.70;36.80;;;;;;4981645;28;20476;-44
2022/04/11 12:52:28;;;;;;;3.80;2.00;;;18.80;38.00;;;;;;4984369;28;20840;-43
2022/04/11 12:55:04;;;;;;;2.83;1.90;;;18.80;37.90;;;;;;4983978;28;20478;-43
2022/04/11 12:57:33;;;;;;;1.57;1.47;;;18.80;36.80;;;;;;4983183;28;20485;-43
2022/04/11 13:00:17;;;;;;;2.47;2.27;;;18.70;36.70;;;;;;4983427;28;20559;-43
2022/04/11 13:02:44;;;;;;;2.97;2.60;;;18.70;37.30;;;;;;4964746;28;20491;-43
2022/04/11 13:05:15;;;;;;;2.27;2.07;;;18.60;36.70;;;;;;4985968;28;20450;-43